Time;durP1;ratioP1;P1;durP2;ratioP2;P2;SDS_P1;SDS_P2;PMS_P1;PMS_P2;Temp;Humidity;BMP_temperature;BMP_pressure;BME280_temperature;BME280_humidity;BME280_pressure;Samples;Min_cycle;Max_cycle;Signal;HPM_P1;HPM_P2
2022/09/07 00:02:08;;;;;;;6.70;2.33;;;20.60;99.90;;;;;;5028624;28;20192;-75
2022/09/07 00:04:34;;;;;;;6.37;2.37;;;20.50;99.90;;;;;;5029711;28;20181;-75
2022/09/07 00:07:00;;;;;;;6.70;2.23;;;20.50;99.90;;;;;;5029898;28;20180;-74
2022/09/07 00:09:25;;;;;;;4.27;1.97;;;20.60;99.90;;;;;;5028574;28;20180;-75
2022/09/07 00:11:51;;;;;;;5.80;2.13;;;20.60;99.90;;;;;;5029956;28;20382;-74
2022/09/07 00:14:17;;;;;;;2.83;2.10;;;20.60;99.90;;;;;;5029988;28;20189;-74
2022/09/07 00:23:28;;;;;;;4.80;2.40;;;20.50;99.90;;;;;;5028938;28;21129;-75
2022/09/07 00:25:57;;;;;;;5.47;2.67;;;20.60;99.90;;;;;;5027374;28;20525;-74
2022/09/07 00:28:23;;;;;;;7.57;2.47;;;20.50;99.90;;;;;;5029915;28;20430;-75
2022/09/07 00:30:48;;;;;;;7.33;2.03;;;20.50;99.90;;;;;;5030689;28;20525;-75
2022/09/07 00:33:14;;;;;;;6.33;2.17;;;20.60;99.90;;;;;;5029420;28;20259;-74
2022/09/07 00:35:40;;;;;;;8.63;2.30;;;20.60;99.90;;;;;;5030593;28;20617;-75
2022/09/07 00:38:07;;;;;;;3.87;1.90;;;20.50;99.90;;;;;;5031665;28;20180;-75
2022/09/07 00:40:33;;;;;;;9.50;2.30;;;20.40;99.90;;;;;;5029769;28;20854;-75
2022/09/07 00:42:59;;;;;;;5.43;2.77;;;20.30;99.90;;;;;;5029988;28;20438;-76
2022/09/07 00:45:25;;;;;;;4.30;2.20;;;20.30;99.90;;;;;;5030543;28;20426;-76
2022/09/07 00:48:08;;;;;;;5.23;2.20;;;20.20;99.90;;;;;;5030164;28;20434;-76
2022/09/07 00:50:39;;;;;;;4.87;2.00;;;20.30;99.90;;;;;;5029900;28;20272;-77
2022/09/07 00:53:21;;;;;;;9.00;2.33;;;20.50;99.90;;;;;;5032500;28;20423;-77
2022/09/07 00:55:49;;;;;;;4.40;1.57;;;20.60;99.90;;;;;;5033517;28;20418;-77
2022/09/07 00:58:17;;;;;;;2.70;1.37;;;20.60;99.90;;;;;;5027909;28;20431;-76
2022/09/07 01:00:45;;;;;;;5.10;1.90;;;20.70;99.90;;;;;;5010856;28;20474;-77
2022/09/07 01:03:12;;;;;;;4.40;1.30;;;20.90;99.90;;;;;;5028759;28;20434;-76
2022/09/07 01:05:43;;;;;;;8.00;2.23;;;21.00;99.90;;;;;;5028758;28;20411;-76
2022/09/07 01:08:10;;;;;;;8.53;1.40;;;21.10;99.90;;;;;;5028695;28;20407;-76
2022/09/07 01:10:37;;;;;;;6.00;2.07;;;21.00;99.90;;;;;;5028754;28;20448;-76
2022/09/07 01:13:04;;;;;;;5.90;2.13;;;21.00;99.90;;;;;;5028583;28;20478;-76
2022/09/07 01:15:48;;;;;;;7.30;1.77;;;21.00;99.90;;;;;;5028561;28;20419;-76
2022/09/07 01:18:27;;;;;;;6.20;1.70;;;21.00;99.90;;;;;;5028623;28;20465;-76
2022/09/07 01:21:19;;;;;;;7.23;2.10;;;21.10;99.90;;;;;;5028369;28;20463;-76
2022/09/07 01:23:56;;;;;;;4.63;1.70;;;21.10;99.90;;;;;;5028220;28;20425;-76
2022/09/07 01:26:53;;;;;;;3.27;1.63;;;21.10;99.90;;;;;;5028625;28;20418;-76
2022/09/07 01:29:28;;;;;;;10.70;1.80;;;21.10;99.90;;;;;;5026831;28;20775;-76
2022/09/07 01:32:21;;;;;;;12.87;2.13;;;21.00;99.90;;;;;;5028117;28;20873;-75
2022/09/07 01:34:52;;;;;;;3.70;1.70;;;21.00;99.90;;;;;;5028564;28;20415;-75
2022/09/07 01:37:41;;;;;;;5.43;1.30;;;21.00;99.90;;;;;;5028540;28;20403;-75
2022/09/07 01:40:42;;;;;;;3.83;1.83;;;21.00;99.90;;;;;;5028349;28;20826;-75
2022/09/07 01:43:34;;;;;;;3.67;1.77;;;21.00;99.90;;;;;;5024131;28;20431;-76
2022/09/07 01:46:05;;;;;;;6.17;2.50;;;20.90;99.90;;;;;;5007969;28;20423;-76
2022/09/07 01:48:35;;;;;;;4.43;1.50;;;20.80;99.90;;;;;;5027390;28;20475;-76
2022/09/07 01:51:03;;;;;;;6.63;1.87;;;20.80;99.90;;;;;;5026721;28;20478;-76
2022/09/07 01:53:38;;;;;;;3.60;2.20;;;20.80;99.90;;;;;;5028178;28;21139;-75
2022/09/07 01:56:10;;;;;;;5.50;2.30;;;20.80;99.90;;;;;;5028119;28;20844;-76
2022/09/07 01:58:51;;;;;;;9.27;2.43;;;20.80;99.90;;;;;;5028513;28;20415;-76
2022/09/07 02:01:28;;;;;;;2.00;1.77;;;20.70;99.90;;;;;;5031717;28;20450;-75
2022/09/07 02:04:02;;;;;;;5.87;1.70;;;20.80;99.90;;;;;;5031742;28;20419;-75
2022/09/07 02:06:40;;;;;;;5.50;2.20;;;20.70;99.90;;;;;;5031640;28;20425;-76
2022/09/07 02:09:31;;;;;;;5.37;2.10;;;20.70;99.90;;;;;;5031580;28;20477;-76
2022/09/07 02:11:59;;;;;;;7.90;1.80;;;20.70;99.90;;;;;;5031288;28;20442;-77
2022/09/07 02:14:32;;;;;;;9.13;2.43;;;20.60;99.90;;;;;;5031380;28;20434;-76
2022/09/07 02:17:05;;;;;;;6.17;2.03;;;20.60;99.90;;;;;;5031429;28;20537;-75
2022/09/07 02:19:39;;;;;;;5.03;2.10;;;20.60;99.90;;;;;;5031195;28;20458;-76
2022/09/07 02:22:12;;;;;;;8.00;2.97;;;20.60;99.90;;;;;;5031322;28;20439;-76
2022/09/07 02:24:45;;;;;;;5.03;2.00;;;20.60;99.90;;;;;;5030033;28;20427;-76
2022/09/07 02:27:16;;;;;;;5.30;2.30;;;20.60;99.90;;;;;;5029798;28;20422;-76
2022/09/07 02:29:42;;;;;;;3.97;1.93;;;20.60;99.90;;;;;;5030113;28;20916;-77
2022/09/07 02:32:08;;;;;;;4.53;2.00;;;20.60;99.90;;;;;;5029639;28;20454;-76
2022/09/07 02:34:36;;;;;;;5.30;2.10;;;20.60;99.90;;;;;;5030101;28;20427;-76
2022/09/07 02:37:08;;;;;;;6.50;2.37;;;20.60;99.90;;;;;;5029653;28;20191;-75
2022/09/07 02:39:37;;;;;;;5.17;2.37;;;20.50;99.90;;;;;;5029892;28;20971;-76
2022/09/07 02:42:03;;;;;;;6.60;2.30;;;20.50;99.90;;;;;;5029842;28;20447;-76
2022/09/07 02:44:33;;;;;;;2.93;1.83;;;20.50;99.90;;;;;;5031534;28;20947;-75
2022/09/07 02:47:08;;;;;;;6.67;1.93;;;20.60;99.90;;;;;;5031862;28;20179;-76
2022/09/07 02:50:02;;;;;;;8.40;2.70;;;20.60;99.90;;;;;;5031966;28;20405;-76
2022/09/07 02:52:58;;;;;;;7.97;2.20;;;20.60;99.90;;;;;;5031697;28;20453;-76
2022/09/07 02:55:29;;;;;;;3.73;1.93;;;20.60;99.90;;;;;;5031445;28;20860;-76
2022/09/07 02:58:17;;;;;;;4.50;1.80;;;20.60;99.90;;;;;;5031483;28;20426;-76
2022/09/07 03:00:51;;;;;;;7.60;2.70;;;20.60;99.90;;;;;;5031226;28;20468;-76
2022/09/07 03:03:51;;;;;;;9.73;2.27;;;20.60;99.90;;;;;;5031377;28;21287;-76
2022/09/07 03:06:33;;;;;;;5.10;2.17;;;20.60;99.90;;;;;;5031154;28;20983;-75
2022/09/07 03:09:08;;;;;;;4.53;2.43;;;20.60;99.90;;;;;;5031150;28;21267;-75
2022/09/07 03:11:37;;;;;;;7.13;2.57;;;20.60;99.90;;;;;;5030007;28;20908;-75
2022/09/07 03:14:17;;;;;;;6.73;2.00;;;20.60;99.90;;;;;;5031057;28;20927;-75
2022/09/07 03:16:43;;;;;;;7.63;2.67;;;20.50;99.90;;;;;;5031241;28;20426;-75
2022/09/07 03:19:09;;;;;;;8.80;2.47;;;20.50;99.90;;;;;;5030901;28;20419;-75
2022/09/07 03:21:37;;;;;;;6.00;2.20;;;20.40;99.90;;;;;;5030833;28;20592;-75
2022/09/07 03:24:07;;;;;;;5.07;1.87;;;20.40;99.90;;;;;;5029429;28;20209;-75
2022/09/07 03:26:35;;;;;;;4.73;2.13;;;20.30;99.90;;;;;;5029536;28;20415;-76
2022/09/07 03:29:00;;;;;;;6.47;2.27;;;20.30;99.90;;;;;;5031843;28;20429;-76
2022/09/07 03:31:26;;;;;;;10.50;2.10;;;20.30;99.90;;;;;;5031388;28;20524;-76
2022/09/07 03:33:53;;;;;;;4.67;2.40;;;20.30;99.90;;;;;;5030618;28;20183;-75
2022/09/07 03:36:18;;;;;;;8.10;2.50;;;20.40;99.90;;;;;;5030320;28;20188;-76
2022/09/07 03:38:44;;;;;;;13.67;7.40;;;20.40;99.90;;;;;;5028626;28;20425;-75
2022/09/07 03:41:10;;;;;;;9.10;2.80;;;20.30;99.90;;;;;;5029927;28;20223;-76
2022/09/07 03:43:36;;;;;;;5.00;2.37;;;20.20;99.90;;;;;;5030047;28;20238;-75
2022/09/07 03:46:04;;;;;;;11.87;3.00;;;20.20;99.90;;;;;;5029962;28;20427;-75
2022/09/07 03:48:31;;;;;;;7.10;2.30;;;20.20;99.90;;;;;;5029955;28;20290;-75
2022/09/07 03:50:58;;;;;;;5.20;2.53;;;20.10;99.90;;;;;;5029414;28;20546;-75
2022/09/07 03:53:24;;;;;;;4.13;2.27;;;20.00;99.90;;;;;;5029782;28;20862;-75
2022/09/07 03:56:02;;;;;;;5.97;2.13;;;20.00;99.90;;;;;;5029490;28;21014;-75
2022/09/07 03:58:29;;;;;;;8.47;2.43;;;19.90;99.90;;;;;;5028088;28;20431;-75
2022/09/07 04:00:55;;;;;;;3.80;2.40;;;19.90;99.90;;;;;;5029242;28;20470;-75
2022/09/07 04:03:21;;;;;;;6.17;2.53;;;19.80;99.90;;;;;;5028051;28;20442;-76
2022/09/07 04:05:46;;;;;;;6.30;2.80;;;19.80;99.90;;;;;;5029690;28;20641;-76
2022/09/07 04:08:12;;;;;;;7.70;3.00;;;19.70;99.90;;;;;;5028257;28;20180;-76
2022/09/07 04:10:39;;;;;;;8.20;3.07;;;19.70;99.90;;;;;;5028248;28;20931;-75
2022/09/07 04:13:05;;;;;;;6.63;2.33;;;19.60;99.90;;;;;;5028003;28;20203;-75
2022/09/07 04:15:31;;;;;;;4.23;2.47;;;19.40;99.90;;;;;;5028096;28;20851;-76
2022/09/07 04:17:57;;;;;;;4.17;2.23;;;19.30;99.90;;;;;;5029446;28;20427;-75
2022/09/07 04:20:24;;;;;;;4.00;2.20;;;19.20;99.90;;;;;;5029658;28;20470;-76
2022/09/07 04:22:50;;;;;;;9.63;2.50;;;19.00;99.90;;;;;;5028980;28;20468;-77
2022/09/07 04:25:16;;;;;;;12.67;3.17;;;19.00;99.90;;;;;;5028664;28;20609;-76
2022/09/07 04:27:41;;;;;;;8.10;2.70;;;18.90;99.90;;;;;;5027004;28;20517;-76
2022/09/07 04:30:08;;;;;;;4.43;2.67;;;18.80;99.90;;;;;;5026872;28;20431;-77
2022/09/07 04:32:34;;;;;;;4.80;2.33;;;18.80;99.90;;;;;;5028436;28;20629;-76
2022/09/07 04:35:00;;;;;;;6.83;3.50;;;18.80;99.90;;;;;;5026872;28;20469;-76
2022/09/07 04:37:25;;;;;;;8.10;3.17;;;18.80;99.90;;;;;;5026763;28;20266;-76
2022/09/07 04:39:51;;;;;;;4.57;2.17;;;18.80;99.90;;;;;;5010462;28;20208;-76
2022/09/07 04:42:17;;;;;;;6.40;2.27;;;18.80;99.90;;;;;;5028132;28;20199;-76
2022/09/07 04:44:43;;;;;;;5.00;2.60;;;18.60;99.90;;;;;;5027927;28;20264;-76
2022/09/07 04:47:09;;;;;;;8.97;3.20;;;18.40;99.90;;;;;;5026412;28;21085;-76
2022/09/07 04:49:34;;;;;;;8.20;2.73;;;18.40;99.90;;;;;;5025933;28;20223;-75
2022/09/07 04:52:00;;;;;;;6.23;3.17;;;18.40;99.90;;;;;;5027342;28;20223;-76
2022/09/07 04:54:26;;;;;;;10.70;2.90;;;18.30;99.90;;;;;;5025878;28;20950;-76
2022/09/07 04:56:52;;;;;;;9.97;3.20;;;18.20;99.90;;;;;;5025809;28;20982;-74
2022/09/07 04:59:17;;;;;;;5.27;2.20;;;18.30;99.90;;;;;;5027146;28;20290;-74
2022/09/07 05:01:43;;;;;;;8.20;2.60;;;18.30;99.90;;;;;;5025649;28;20455;-74
2022/09/07 05:04:09;;;;;;;8.80;3.50;;;18.30;99.90;;;;;;5025848;28;20185;-74
2022/09/07 05:06:34;;;;;;;5.43;2.50;;;18.30;99.90;;;;;;5027149;28;20221;-75
2022/09/07 05:09:00;;;;;;;10.33;2.37;;;18.40;99.90;;;;;;5025931;28;20566;-75
2022/09/07 05:11:26;;;;;;;12.10;3.07;;;18.30;99.90;;;;;;5025870;28;20239;-74
2022/09/07 05:13:54;;;;;;;13.63;2.50;;;18.20;99.90;;;;;;5027822;28;20438;-75
2022/09/07 05:16:22;;;;;;;5.17;2.47;;;18.00;99.90;;;;;;5027685;28;20440;-75
2022/09/07 05:18:50;;;;;;;11.30;2.70;;;17.80;99.90;;;;;;5028040;28;20427;-75
2022/09/07 05:21:18;;;;;;;6.10;3.00;;;17.60;99.90;;;;;;5027830;28;21080;-75
2022/09/07 05:23:47;;;;;;;4.13;2.67;;;17.80;99.90;;;;;;5026402;28;20419;-75
2022/09/07 05:26:13;;;;;;;6.43;2.97;;;17.90;99.90;;;;;;5026224;28;20461;-75
2022/09/07 05:28:39;;;;;;;5.77;3.03;;;18.00;99.90;;;;;;5026485;28;20462;-75
2022/09/07 05:31:10;;;;;;;8.40;2.53;;;18.10;99.90;;;;;;5026308;28;20489;-75
2022/09/07 05:33:36;;;;;;;4.80;2.20;;;18.20;99.90;;;;;;5028006;28;20192;-75
2022/09/07 05:36:04;;;;;;;11.33;2.93;;;18.30;99.90;;;;;;5031830;28;20427;-75
2022/09/07 05:38:30;;;;;;;4.93;2.27;;;18.40;99.90;;;;;;5029903;28;20449;-75
2022/09/07 05:40:57;;;;;;;5.03;2.20;;;18.50;99.90;;;;;;5031105;28;20471;-74
2022/09/07 05:43:23;;;;;;;7.83;2.27;;;18.70;99.90;;;;;;5031301;28;20430;-75
2022/09/07 05:45:48;;;;;;;5.77;2.40;;;18.90;99.90;;;;;;5029662;28;20430;-75
2022/09/07 05:48:14;;;;;;;6.73;2.50;;;19.00;99.90;;;;;;5030081;28;20202;-75
2022/09/07 05:50:49;;;;;;;8.87;3.33;;;19.20;99.90;;;;;;5031209;28;20199;-75
2022/09/07 05:53:15;;;;;;;3.67;2.17;;;19.40;99.90;;;;;;5031088;28;20641;-75
2022/09/07 05:55:40;;;;;;;6.03;2.87;;;19.60;99.90;;;;;;5029771;28;20425;-74
2022/09/07 05:58:06;;;;;;;6.30;2.30;;;19.70;99.90;;;;;;5030974;28;20203;-77
2022/09/07 06:00:32;;;;;;;6.17;2.27;;;19.90;99.90;;;;;;5030977;28;20239;-76
2022/09/07 06:02:58;;;;;;;5.53;2.40;;;20.00;99.90;;;;;;5012974;28;20185;-76
2022/09/07 06:05:23;;;;;;;6.43;2.63;;;20.20;99.90;;;;;;5029416;28;20450;-76
2022/09/07 06:07:49;;;;;;;8.00;3.33;;;20.20;99.90;;;;;;5029238;28;20576;-76
2022/09/07 06:10:15;;;;;;;7.00;3.00;;;20.30;99.90;;;;;;5012674;28;20195;-76
2022/09/07 06:12:45;;;;;;;8.37;3.10;;;20.30;99.90;;;;;;5030084;28;20596;-76
2022/09/07 06:15:11;;;;;;;7.90;2.63;;;20.30;99.90;;;;;;5029000;28;20227;-76
2022/09/07 06:17:36;;;;;;;8.33;3.00;;;20.30;99.90;;;;;;5030242;28;20428;-76
2022/09/07 06:20:03;;;;;;;6.77;2.33;;;20.20;99.90;;;;;;5028738;28;20455;-76
2022/09/07 06:22:29;;;;;;;11.43;3.30;;;20.20;99.90;;;;;;5030402;28;20640;-76
2022/09/07 06:24:54;;;;;;;8.03;2.77;;;20.20;99.90;;;;;;5028196;28;20426;-76
2022/09/07 06:27:20;;;;;;;5.20;2.53;;;20.40;99.90;;;;;;5030013;28;20219;-76
2022/09/07 06:29:46;;;;;;;23.13;3.13;;;20.80;99.90;;;;;;5028429;28;20185;-76
2022/09/07 06:32:11;;;;;;;11.50;2.20;;;20.80;99.90;;;;;;5029946;28;20215;-76
2022/09/07 06:34:37;;;;;;;7.33;2.33;;;20.70;99.90;;;;;;5029769;28;20252;-76
2022/09/07 06:37:02;;;;;;;5.77;2.10;;;20.60;99.90;;;;;;5029799;28;20192;-76
2022/09/07 06:39:28;;;;;;;9.17;3.33;;;20.60;99.90;;;;;;5027973;28;20334;-76
2022/09/07 06:41:54;;;;;;;5.73;2.50;;;20.50;99.90;;;;;;5029761;28;20206;-76
2022/09/07 06:44:19;;;;;;;7.50;2.30;;;20.60;99.90;;;;;;5011459;28;20250;-76
2022/09/07 06:46:45;;;;;;;5.37;2.47;;;20.70;99.90;;;;;;5029543;28;20187;-76
2022/09/07 06:49:13;;;;;;;7.80;2.30;;;20.70;99.90;;;;;;5027830;28;20219;-76
2022/09/07 06:51:39;;;;;;;8.20;2.20;;;20.80;99.90;;;;;;5027993;28;20207;-76
2022/09/07 06:54:05;;;;;;;7.33;2.30;;;20.80;99.90;;;;;;5029295;28;20422;-76
2022/09/07 06:56:30;;;;;;;7.07;2.10;;;20.90;99.90;;;;;;5029436;28;20246;-75
2022/09/07 06:58:57;;;;;;;7.67;2.40;;;20.90;99.90;;;;;;5029657;28;20650;-76
2022/09/07 07:01:24;;;;;;;12.00;2.70;;;21.00;99.90;;;;;;5030766;28;20274;-76
2022/09/07 07:03:50;;;;;;;8.07;2.87;;;21.00;99.90;;;;;;5029998;28;20546;-76
2022/09/07 07:06:16;;;;;;;7.87;1.90;;;21.00;99.90;;;;;;5029619;28;20426;-76
2022/09/07 07:08:45;;;;;;;4.77;2.20;;;21.00;99.90;;;;;;5028336;28;20481;-76
2022/09/07 07:11:14;;;;;;;5.43;2.47;;;21.00;99.90;;;;;;5030172;28;20454;-77
2022/09/07 07:13:42;;;;;;;8.43;4.20;;;21.00;99.90;;;;;;5029692;28;20549;-76
2022/09/07 07:16:10;;;;;;;9.60;2.83;;;21.10;99.90;;;;;;5029997;28;20433;-76
2022/09/07 07:18:37;;;;;;;7.53;1.93;;;21.10;99.90;;;;;;5028501;28;20462;-76
2022/09/07 07:21:05;;;;;;;6.63;2.00;;;21.20;99.90;;;;;;5029862;28;20478;-76
2022/09/07 07:23:31;;;;;;;8.50;2.20;;;21.30;99.90;;;;;;5027692;28;20963;-77
2022/09/07 07:26:04;;;;;;;9.83;2.43;;;21.50;99.90;;;;;;5029684;28;20419;-76
2022/09/07 07:28:30;;;;;;;9.53;2.47;;;21.60;99.90;;;;;;5029494;28;20420;-77
2022/09/07 07:30:58;;;;;;;8.37;3.20;;;21.60;99.90;;;;;;5029264;28;20967;-76
2022/09/07 07:33:29;;;;;;;3.63;2.13;;;21.70;99.90;;;;;;5028917;28;20415;-76
2022/09/07 07:36:13;;;;;;;6.40;2.57;;;21.80;99.90;;;;;;5029116;28;20518;-77
2022/09/07 07:38:40;;;;;;;6.03;2.17;;;21.90;99.90;;;;;;5029138;28;20795;-77
2022/09/07 07:41:06;;;;;;;7.40;2.80;;;22.00;99.90;;;;;;5029145;28;20955;-77
2022/09/07 07:43:32;;;;;;;9.43;2.53;;;22.10;99.90;;;;;;5027735;28;20778;-77
2022/09/07 07:45:58;;;;;;;7.00;2.10;;;22.10;99.90;;;;;;5011071;28;20439;-76
2022/09/07 07:48:25;;;;;;;5.70;2.17;;;22.20;99.90;;;;;;5027520;28;20514;-77
2022/09/07 07:51:02;;;;;;;8.50;2.80;;;22.30;99.90;;;;;;5029013;28;20969;-76
2022/09/07 07:53:28;;;;;;;4.97;1.87;;;22.30;99.90;;;;;;5028032;28;20414;-76
2022/09/07 07:55:58;;;;;;;8.10;2.60;;;22.30;99.90;;;;;;5030130;28;20427;-75
2022/09/07 07:58:26;;;;;;;6.63;2.53;;;22.40;99.90;;;;;;5029968;28;20763;-76
2022/09/07 08:00:52;;;;;;;9.27;2.60;;;22.60;99.90;;;;;;5029856;28;21073;-76
2022/09/07 08:03:19;;;;;;;4.10;2.00;;;22.60;99.90;;;;;;5037466;28;20424;-75
2022/09/07 08:05:44;;;;;;;4.77;2.30;;;22.70;99.90;;;;;;5037504;28;20422;-75
2022/09/07 08:08:10;;;;;;;9.90;3.10;;;22.80;99.90;;;;;;5034797;28;20421;-76
2022/09/07 08:10:37;;;;;;;7.87;3.10;;;22.90;99.90;;;;;;5031096;28;20192;-75
2022/09/07 08:13:02;;;;;;;11.77;3.53;;;23.00;99.90;;;;;;5031001;28;21008;-75
2022/09/07 08:15:29;;;;;;;4.80;3.00;;;23.10;99.90;;;;;;5013473;28;20436;-76
2022/09/07 08:17:56;;;;;;;7.30;2.60;;;23.20;99.90;;;;;;5031719;28;20188;-76
2022/09/07 08:20:22;;;;;;;5.97;2.97;;;23.30;99.90;;;;;;5032128;28;20522;-76
2022/09/07 08:22:50;;;;;;;10.40;2.57;;;23.30;99.90;;;;;;5030745;28;20500;-76
2022/09/07 08:25:16;;;;;;;8.63;2.90;;;23.40;99.90;;;;;;5028663;28;20424;-75
2022/09/07 08:27:42;;;;;;;5.47;2.50;;;23.40;99.90;;;;;;5028359;28;20477;-75
2022/09/07 08:30:10;;;;;;;11.93;2.40;;;23.60;99.90;;;;;;5028318;28;20193;-76
2022/09/07 08:32:36;;;;;;;8.67;2.57;;;23.80;99.90;;;;;;5027806;28;20439;-76
2022/09/07 08:35:02;;;;;;;9.13;2.47;;;23.70;99.90;;;;;;5027737;28;20500;-76
2022/09/07 08:37:28;;;;;;;9.10;2.53;;;23.70;99.90;;;;;;5027647;28;20188;-76
2022/09/07 08:39:53;;;;;;;9.40;2.70;;;23.90;99.90;;;;;;5009865;28;20904;-76
2022/09/07 08:42:58;;;;;;;10.10;2.50;;;24.00;99.90;;;;;;5027566;28;20451;-76
2022/09/07 08:45:37;;;;;;;4.17;2.40;;;24.10;99.90;;;;;;5011667;28;20249;-75
2022/09/07 08:48:08;;;;;;;8.10;2.50;;;24.30;99.90;;;;;;5026541;28;20456;-75
2022/09/07 08:50:42;;;;;;;5.70;2.67;;;24.30;99.90;;;;;;5028773;28;20427;-76
2022/09/07 08:53:18;;;;;;;5.83;2.70;;;24.40;99.90;;;;;;5028522;28;21081;-76
2022/09/07 08:56:09;;;;;;;7.10;2.90;;;24.40;99.90;;;;;;5027813;28;20536;-76
2022/09/07 08:58:45;;;;;;;8.30;2.73;;;24.70;99.90;;;;;;5027578;28;20410;-76
2022/09/07 09:01:30;;;;;;;4.90;2.47;;;24.80;99.90;;;;;;5027240;28;20473;-76
2022/09/07 09:03:56;;;;;;;6.87;3.27;;;24.80;99.90;;;;;;5027462;28;20406;-76
2022/09/07 09:06:34;;;;;;;9.53;3.00;;;24.70;99.90;;;;;;5027320;28;20453;-76
2022/09/07 09:09:24;;;;;;;9.20;3.03;;;24.70;99.90;;;;;;5029967;28;20180;-76
2022/09/07 09:12:27;;;;;;;11.23;2.37;;;24.70;99.90;;;;;;5031374;28;20447;-76
2022/09/07 09:15:14;;;;;;;4.03;2.60;;;24.60;99.90;;;;;;5031683;28;20425;-76
2022/09/07 09:17:50;;;;;;;6.87;3.20;;;24.60;99.90;;;;;;5031581;28;20416;-76
2022/09/07 09:20:31;;;;;;;22.70;4.37;;;24.70;99.90;;;;;;5031464;28;21077;-76
2022/09/07 09:23:05;;;;;;;12.70;3.90;;;25.30;99.90;;;;;;5031634;28;20579;-77
2022/09/07 09:25:34;;;;;;;24.93;4.13;;;25.90;99.90;;;;;;5031555;28;20454;-76
2022/09/07 09:28:00;;;;;;;32.20;4.83;;;26.30;99.90;;;;;;5030190;28;20599;-76
2022/09/07 09:30:30;;;;;;;11.23;2.60;;;26.80;99.90;;;;;;5030963;28;20423;-76
2022/09/07 09:33:22;;;;;;;8.83;3.27;;;27.10;99.90;;;;;;5029124;28;20438;-76
2022/09/07 09:35:50;;;;;;;6.73;2.30;;;26.90;99.90;;;;;;5031301;28;20925;-76
2022/09/07 09:38:28;;;;;;;9.33;2.60;;;27.40;99.90;;;;;;5031147;28;20881;-76
2022/09/07 09:41:14;;;;;;;12.00;2.57;;;27.80;99.90;;;;;;5031112;28;20526;-76
2022/09/07 09:43:45;;;;;;;4.27;2.53;;;28.30;99.90;;;;;;5030733;28;20442;-76
2022/09/07 09:46:24;;;;;;;5.93;2.50;;;28.30;99.90;;;;;;5029983;28;20419;-76
2022/09/07 09:49:12;;;;;;;5.80;2.37;;;28.90;99.90;;;;;;5030082;28;20800;-76
2022/09/07 09:51:45;;;;;;;7.27;2.80;;;29.20;98.10;;;;;;5031332;28;20842;-76
2022/09/07 09:54:24;;;;;;;7.17;2.27;;;29.70;97.70;;;;;;5031386;28;20447;-76
2022/09/07 09:56:50;;;;;;;5.33;2.27;;;30.00;96.00;;;;;;5031426;28;20982;-75
2022/09/07 09:59:15;;;;;;;4.60;2.10;;;30.40;96.00;;;;;;5031018;28;20496;-76
2022/09/07 10:01:42;;;;;;;3.07;2.40;;;30.30;95.80;;;;;;5031689;28;20246;-76
2022/09/07 10:04:32;;;;;;;6.87;2.40;;;30.20;96.70;;;;;;5029793;28;20576;-76
2022/09/07 10:07:21;;;;;;;4.37;2.10;;;30.50;95.00;;;;;;5031917;28;20449;-77
2022/09/07 10:09:50;;;;;;;6.73;2.20;;;30.80;92.30;;;;;;5030874;28;20465;-76
2022/09/07 10:12:35;;;;;;;3.97;1.93;;;30.90;92.50;;;;;;5029037;28;20463;-75
2022/09/07 10:15:03;;;;;;;6.87;2.43;;;30.50;92.50;;;;;;5030518;28;20950;-75
2022/09/07 10:17:36;;;;;;;6.30;1.60;;;29.60;93.00;;;;;;5030411;28;20508;-75
2022/09/07 10:20:16;;;;;;;7.27;2.27;;;29.60;94.90;;;;;;5029519;28;20598;-75
2022/09/07 10:22:51;;;;;;;6.10;2.40;;;30.00;93.80;;;;;;5029736;28;20454;-75
2022/09/07 10:25:26;;;;;;;6.83;2.33;;;30.30;93.30;;;;;;5030223;28;20428;-77
2022/09/07 10:28:11;;;;;;;6.30;2.20;;;30.80;92.80;;;;;;5028662;28;20517;-75
2022/09/07 10:31:05;;;;;;;5.10;1.90;;;30.40;91.70;;;;;;5029948;28;20462;-75
2022/09/07 10:33:43;;;;;;;3.00;1.80;;;29.50;93.20;;;;;;5029871;28;20968;-75
2022/09/07 10:36:51;;;;;;;4.50;2.37;;;29.50;94.00;;;;;;5028340;28;20437;-74
2022/09/07 10:39:22;;;;;;;7.40;2.10;;;30.40;94.40;;;;;;5010767;28;20430;-75
2022/09/07 10:42:20;;;;;;;4.13;2.13;;;30.80;92.30;;;;;;5029432;28;20546;-74
2022/09/07 10:44:51;;;;;;;6.13;2.60;;;31.10;90.50;;;;;;5013132;28;20438;-75
2022/09/07 10:47:45;;;;;;;6.73;2.40;;;31.10;91.30;;;;;;5029242;28;20514;-75
2022/09/07 10:50:43;;;;;;;5.70;2.00;;;31.40;89.00;;;;;;5029178;28;20480;-76
2022/09/07 10:53:34;;;;;;;4.60;1.90;;;31.60;88.20;;;;;;5024364;28;20939;-75
2022/09/07 10:56:09;;;;;;;5.73;2.30;;;31.70;85.50;;;;;;5029476;28;20771;-76
2022/09/07 10:59:01;;;;;;;5.57;1.77;;;31.90;86.40;;;;;;5028977;28;20884;-75
2022/09/07 11:01:58;;;;;;;2.50;1.60;;;31.90;86.10;;;;;;5009131;28;20478;-76
2022/09/07 11:04:57;;;;;;;3.20;1.70;;;31.90;85.20;;;;;;5028928;28;20434;-75
2022/09/07 11:07:46;;;;;;;5.57;1.80;;;31.90;81.30;;;;;;5027439;28;20426;-75
2022/09/07 11:10:11;;;;;;;6.73;2.20;;;31.80;77.80;;;;;;5027220;28;20497;-74
2022/09/07 11:12:40;;;;;;;4.17;1.80;;;31.90;81.70;;;;;;5028640;28;20956;-74
2022/09/07 11:15:12;;;;;;;4.20;1.50;;;32.00;78.90;;;;;;5027323;28;20193;-74
2022/09/07 11:17:52;;;;;;;4.40;1.70;;;31.90;77.20;;;;;;5028499;28;20420;-75
2022/09/07 11:20:57;;;;;;;7.30;1.70;;;32.10;81.00;;;;;;5028432;28;20462;-76
2022/09/07 11:23:27;;;;;;;4.00;1.77;;;32.30;77.20;;;;;;5027368;28;20439;-74
2022/09/07 11:26:16;;;;;;;6.50;2.27;;;32.40;74.20;;;;;;5028583;28;20407;-74
2022/09/07 11:29:03;;;;;;;2.93;1.53;;;32.20;69.80;;;;;;5028711;28;20430;-76
2022/09/07 11:31:43;;;;;;;3.23;1.60;;;32.30;73.60;;;;;;5027256;28;20514;-76
2022/09/07 11:34:21;;;;;;;3.43;1.37;;;32.50;72.70;;;;;;5028531;28;20415;-75
2022/09/07 11:36:57;;;;;;;3.83;1.43;;;32.30;67.60;;;;;;5028867;28;20415;-75
2022/09/07 11:39:29;;;;;;;3.30;1.30;;;32.40;69.00;;;;;;5027416;28;20426;-75
2022/09/07 11:42:04;;;;;;;5.47;1.90;;;32.50;69.50;;;;;;5028657;28;20834;-75
2022/09/07 11:44:45;;;;;;;4.20;1.93;;;32.60;71.50;;;;;;5028699;28;20419;-76
2022/09/07 11:47:45;;;;;;;4.33;1.63;;;32.60;70.40;;;;;;5028824;28;20411;-74
2022/09/07 11:50:17;;;;;;;1.90;1.40;;;32.30;68.00;;;;;;5028518;28;20423;-75
2022/09/07 11:53:14;;;;;;;4.00;1.50;;;32.50;69.40;;;;;;5028425;28;20508;-76
2022/09/07 11:55:45;;;;;;;5.03;1.33;;;32.70;69.50;;;;;;5026317;28;20465;-75
2022/09/07 11:58:56;;;;;;;8.70;2.53;;;32.70;67.60;;;;;;5028758;28;20419;-76
2022/09/07 12:01:43;;;;;;;2.60;1.20;;;32.80;67.40;;;;;;5028291;28;20473;-74
2022/09/07 12:04:54;;;;;;;3.00;1.70;;;32.50;62.10;;;;;;5028453;28;20415;-75
2022/09/07 12:07:29;;;;;;;2.23;1.17;;;32.40;63.60;;;;;;5012442;28;20426;-75
2022/09/07 12:10:22;;;;;;;2.10;1.17;;;32.50;64.80;;;;;;5028383;28;20422;-75
2022/09/07 12:12:55;;;;;;;2.90;1.20;;;32.50;61.80;;;;;;5028207;28;21112;-75
2022/09/07 12:15:33;;;;;;;2.23;1.20;;;32.60;61.60;;;;;;5026707;28;21032;-75
2022/09/07 12:18:16;;;;;;;7.40;1.30;;;32.10;57.60;;;;;;5028382;28;20985;-75
2022/09/07 12:20:43;;;;;;;2.47;1.20;;;31.50;60.90;;;;;;5028210;28;20455;-75
2022/09/07 12:23:15;;;;;;;2.97;1.10;;;31.10;61.00;;;;;;5027814;28;20439;-74
2022/09/07 12:25:45;;;;;;;3.37;1.27;;;31.00;58.30;;;;;;5027677;28;20453;-74
2022/09/07 12:28:15;;;;;;;3.60;1.30;;;31.20;61.20;;;;;;5028980;28;20773;-74
2022/09/07 12:31:00;;;;;;;3.23;1.47;;;31.50;61.90;;;;;;5027347;28;20423;-74
2022/09/07 12:33:35;;;;;;;3.60;1.57;;;31.50;64.00;;;;;;5025907;28;20481;-74
2022/09/07 12:36:21;;;;;;;2.23;1.20;;;31.20;62.60;;;;;;5027514;28;20819;-74
2022/09/07 12:39:03;;;;;;;7.53;1.37;;;31.00;64.00;;;;;;5027280;28;20484;-74
2022/09/07 12:41:44;;;;;;;4.10;1.80;;;31.00;63.70;;;;;;5025704;28;20528;-75
2022/09/07 12:44:21;;;;;;;3.00;1.20;;;31.30;63.60;;;;;;5027035;28;20451;-75
2022/09/07 12:46:50;;;;;;;7.33;1.20;;;31.40;63.60;;;;;;5026019;28;20423;-76
2022/09/07 12:49:25;;;;;;;1.57;1.40;;;31.60;59.00;;;;;;5027861;28;20423;-76
2022/09/07 12:52:17;;;;;;;5.47;1.43;;;31.90;63.50;;;;;;5027079;28;20445;-75
2022/09/07 12:55:11;;;;;;;3.23;1.37;;;32.10;62.70;;;;;;5025739;28;20466;-75
2022/09/07 12:57:52;;;;;;;2.00;1.43;;;32.10;63.30;;;;;;5009502;28;20432;-75
2022/09/07 13:00:23;;;;;;;2.53;1.20;;;32.00;64.10;;;;;;5026926;28;20549;-75
2022/09/07 13:03:23;;;;;;;2.40;1.40;;;31.90;60.90;;;;;;5027018;28;20470;-75
2022/09/07 13:06:05;;;;;;;2.67;1.47;;;31.80;60.80;;;;;;5027064;28;20415;-75
2022/09/07 13:08:57;;;;;;;3.70;1.40;;;31.70;58.30;;;;;;5025473;28;20419;-75
2022/09/07 13:11:31;;;;;;;3.97;1.40;;;30.90;58.00;;;;;;5026831;28;20482;-75
2022/09/07 13:14:14;;;;;;;6.70;1.40;;;30.60;61.10;;;;;;5027241;28;20444;-75
2022/09/07 13:16:42;;;;;;;5.50;1.43;;;30.70;61.30;;;;;;5026020;28;20427;-75
2022/09/07 13:19:30;;;;;;;1.80;1.37;;;30.80;62.30;;;;;;5027233;28;20411;-74
2022/09/07 13:21:56;;;;;;;2.53;1.57;;;30.90;64.80;;;;;;5026817;28;20478;-75
2022/09/07 13:24:36;;;;;;;4.50;1.83;;;30.90;63.10;;;;;;5025244;28;20427;-75